Arbor Vitae, Wisconsin
Current Conditions -  °F | °C
As of 11:15 AM on Sunday 23 Nov 2014 (Local Time) from KARV Reporting Station
Moderate Fog Moderate Fog  
Wind Chill: 40°   Ceiling: 200
Heat Index: 44°   Visibility: 0mi
Dew Point: 43°   Wind: 8mph
Humidity: 96%   Direction: 180°S
Pressure: 29.48"   Gusts: NA
Location:  45.9553°N, 89.6779°W
Report Text: KARV 231715Z AUTO 18007KT M1/4SM FG OVC002 07/06 A2948 RMK AO2 T00670061
Loading
Personal Weather Stations






























Interactive Weather Map New forecast layout! Learn more

10-Day Weather Forecast

Advertisements
Track Severe Weather on mobile